sensor_id;sensor_type;location;lat;lon;timestamp;P1;durP1;ratioP1;P2;durP2;ratioP2
77234;SDS011;66253;50.526;14.974;2023-12-07T00:00:38;44.40;;;15.80;;
77234;SDS011;66253;50.526;14.974;2023-12-07T00:03:06;40.40;;;15.70;;
77234;SDS011;66253;50.526;14.974;2023-12-07T00:05:34;38.10;;;15.10;;
77234;SDS011;66253;50.526;14.974;2023-12-07T00:08:03;43.50;;;14.90;;
77234;SDS011;66253;50.526;14.974;2023-12-07T00:10:35;46.80;;;16.10;;
77234;SDS011;66253;50.526;14.974;2023-12-07T00:13:03;47.70;;;16.40;;
77234;SDS011;66253;50.526;14.974;2023-12-07T00:15:32;43.00;;;15.90;;
77234;SDS011;66253;50.526;14.974;2023-12-07T00:18:00;44.00;;;15.10;;
77234;SDS011;66253;50.526;14.974;2023-12-07T00:20:29;44.40;;;16.10;;
77234;SDS011;66253;50.526;14.974;2023-12-07T00:22:57;39.70;;;14.40;;
77234;SDS011;66253;50.526;14.974;2023-12-07T00:25:25;46.50;;;15.80;;
77234;SDS011;66253;50.526;14.974;2023-12-07T00:27:54;46.50;;;16.50;;
77234;SDS011;66253;50.526;14.974;2023-12-07T00:30:22;46.70;;;17.10;;
77234;SDS011;66253;50.526;14.974;2023-12-07T00:32:50;43.80;;;16.00;;
77234;SDS011;66253;50.526;14.974;2023-12-07T00:35:18;38.90;;;14.30;;
77234;SDS011;66253;50.526;14.974;2023-12-07T00:37:47;42.90;;;15.60;;
77234;SDS011;66253;50.526;14.974;2023-12-07T00:40:15;47.60;;;18.20;;
77234;SDS011;66253;50.526;14.974;2023-12-07T00:42:43;44.10;;;17.40;;
77234;SDS011;66253;50.526;14.974;2023-12-07T00:45:12;51.10;;;17.80;;
77234;SDS011;66253;50.526;14.974;2023-12-07T00:47:40;44.10;;;16.00;;
77234;SDS011;66253;50.526;14.974;2023-12-07T00:50:11;45.90;;;16.80;;
77234;SDS011;66253;50.526;14.974;2023-12-07T00:52:40;54.80;;;20.00;;
77234;SDS011;66253;50.526;14.974;2023-12-07T00:55:08;75.00;;;25.50;;
77234;SDS011;66253;50.526;14.974;2023-12-07T00:57:36;62.10;;;22.30;;
77234;SDS011;66253;50.526;14.974;2023-12-07T01:00:05;49.00;;;19.30;;
77234;SDS011;66253;50.526;14.974;2023-12-07T01:02:34;50.20;;;18.80;;
77234;SDS011;66253;50.526;14.974;2023-12-07T01:05:03;51.40;;;16.80;;
77234;SDS011;66253;50.526;14.974;2023-12-07T01:07:32;52.40;;;18.10;;
77234;SDS011;66253;50.526;14.974;2023-12-07T01:10:00;47.80;;;17.10;;
77234;SDS011;66253;50.526;14.974;2023-12-07T01:12:31;45.20;;;17.80;;
77234;SDS011;66253;50.526;14.974;2023-12-07T01:15:01;44.50;;;18.30;;
77234;SDS011;66253;50.526;14.974;2023-12-07T01:17:31;43.80;;;16.60;;
77234;SDS011;66253;50.526;14.974;2023-12-07T01:19:59;38.50;;;15.60;;
77234;SDS011;66253;50.526;14.974;2023-12-07T01:22:30;45.10;;;16.00;;
77234;SDS011;66253;50.526;14.974;2023-12-07T01:24:58;39.80;;;14.40;;
77234;SDS011;66253;50.526;14.974;2023-12-07T01:27:26;41.00;;;15.50;;
77234;SDS011;66253;50.526;14.974;2023-12-07T01:29:55;39.30;;;14.80;;
77234;SDS011;66253;50.526;14.974;2023-12-07T01:32:23;41.40;;;14.50;;
77234;SDS011;66253;50.526;14.974;2023-12-07T01:34:51;37.40;;;14.30;;
77234;SDS011;66253;50.526;14.974;2023-12-07T01:37:19;42.00;;;15.90;;
77234;SDS011;66253;50.526;14.974;2023-12-07T01:39:48;40.90;;;15.70;;
77234;SDS011;66253;50.526;14.974;2023-12-07T01:42:16;36.30;;;14.20;;
77234;SDS011;66253;50.526;14.974;2023-12-07T01:44:46;36.70;;;14.20;;
77234;SDS011;66253;50.526;14.974;2023-12-07T01:47:14;36.70;;;15.00;;
77234;SDS011;66253;50.526;14.974;2023-12-07T01:49:43;37.80;;;13.40;;
77234;SDS011;66253;50.526;14.974;2023-12-07T01:52:11;31.90;;;12.90;;
77234;SDS011;66253;50.526;14.974;2023-12-07T01:54:40;39.30;;;13.40;;
77234;SDS011;66253;50.526;14.974;2023-12-07T01:57:09;35.80;;;13.50;;
77234;SDS011;66253;50.526;14.974;2023-12-07T01:59:37;37.80;;;13.60;;
77234;SDS011;66253;50.526;14.974;2023-12-07T02:05:04;36.90;;;13.90;;
77234;SDS011;66253;50.526;14.974;2023-12-07T02:07:34;38.80;;;12.90;;
77234;SDS011;66253;50.526;14.974;2023-12-07T02:10:04;42.30;;;14.90;;
77234;SDS011;66253;50.526;14.974;2023-12-07T02:12:41;36.00;;;13.30;;
77234;SDS011;66253;50.526;14.974;2023-12-07T02:15:11;35.70;;;14.20;;
77234;SDS011;66253;50.526;14.974;2023-12-07T02:17:41;37.50;;;14.30;;
77234;SDS011;66253;50.526;14.974;2023-12-07T02:20:20;34.60;;;13.40;;
77234;SDS011;66253;50.526;14.974;2023-12-07T02:22:56;37.10;;;13.10;;
77234;SDS011;66253;50.526;14.974;2023-12-07T02:25:31;34.70;;;14.10;;
77234;SDS011;66253;50.526;14.974;2023-12-07T02:28:02;33.90;;;12.40;;
77234;SDS011;66253;50.526;14.974;2023-12-07T02:30:35;35.50;;;13.90;;
77234;SDS011;66253;50.526;14.974;2023-12-07T02:33:05;35.30;;;14.20;;
77234;SDS011;66253;50.526;14.974;2023-12-07T02:35:37;38.60;;;14.40;;
77234;SDS011;66253;50.526;14.974;2023-12-07T02:38:08;36.40;;;13.40;;
77234;SDS011;66253;50.526;14.974;2023-12-07T02:40:42;35.20;;;13.10;;
77234;SDS011;66253;50.526;14.974;2023-12-07T02:43:13;33.40;;;12.50;;
77234;SDS011;66253;50.526;14.974;2023-12-07T02:45:41;33.00;;;12.90;;
77234;SDS011;66253;50.526;14.974;2023-12-07T02:48:12;28.40;;;11.70;;
77234;SDS011;66253;50.526;14.974;2023-12-07T02:50:41;36.50;;;13.40;;
77234;SDS011;66253;50.526;14.974;2023-12-07T02:53:09;32.10;;;12.40;;
77234;SDS011;66253;50.526;14.974;2023-12-07T02:55:37;34.40;;;12.90;;
77234;SDS011;66253;50.526;14.974;2023-12-07T02:58:06;33.70;;;14.20;;
77234;SDS011;66253;50.526;14.974;2023-12-07T03:00:34;40.60;;;14.60;;
77234;SDS011;66253;50.526;14.974;2023-12-07T03:03:02;38.80;;;13.50;;
77234;SDS011;66253;50.526;14.974;2023-12-07T03:05:30;37.80;;;13.30;;
77234;SDS011;66253;50.526;14.974;2023-12-07T03:07:59;34.00;;;12.90;;
77234;SDS011;66253;50.526;14.974;2023-12-07T03:10:27;44.10;;;14.40;;
77234;SDS011;66253;50.526;14.974;2023-12-07T03:12:55;56.00;;;16.70;;
77234;SDS011;66253;50.526;14.974;2023-12-07T03:15:23;65.20;;;18.00;;
77234;SDS011;66253;50.526;14.974;2023-12-07T03:17:52;50.60;;;15.70;;
77234;SDS011;66253;50.526;14.974;2023-12-07T03:20:20;54.40;;;16.00;;
77234;SDS011;66253;50.526;14.974;2023-12-07T03:22:48;38.70;;;14.00;;
77234;SDS011;66253;50.526;14.974;2023-12-07T03:25:16;39.20;;;13.70;;
77234;SDS011;66253;50.526;14.974;2023-12-07T03:27:45;39.50;;;14.00;;
77234;SDS011;66253;50.526;14.974;2023-12-07T03:30:13;37.50;;;14.40;;
77234;SDS011;66253;50.526;14.974;2023-12-07T03:32:41;35.20;;;12.70;;
77234;SDS011;66253;50.526;14.974;2023-12-07T03:35:11;41.30;;;13.90;;
77234;SDS011;66253;50.526;14.974;2023-12-07T03:37:40;36.50;;;13.40;;
77234;SDS011;66253;50.526;14.974;2023-12-07T03:40:09;33.60;;;12.80;;
77234;SDS011;66253;50.526;14.974;2023-12-07T03:42:37;35.30;;;13.20;;
77234;SDS011;66253;50.526;14.974;2023-12-07T03:45:07;31.50;;;12.00;;
77234;SDS011;66253;50.526;14.974;2023-12-07T03:47:35;30.90;;;12.20;;
77234;SDS011;66253;50.526;14.974;2023-12-07T03:50:04;35.30;;;14.40;;
77234;SDS011;66253;50.526;14.974;2023-12-07T03:52:33;31.40;;;12.40;;
77234;SDS011;66253;50.526;14.974;2023-12-07T03:55:01;33.20;;;13.60;;
77234;SDS011;66253;50.526;14.974;2023-12-07T03:57:31;37.70;;;13.80;;
77234;SDS011;66253;50.526;14.974;2023-12-07T03:59:59;36.80;;;13.50;;
77234;SDS011;66253;50.526;14.974;2023-12-07T04:02:30;38.70;;;15.40;;
77234;SDS011;66253;50.526;14.974;2023-12-07T04:05:00;33.20;;;12.90;;
77234;SDS011;66253;50.526;14.974;2023-12-07T04:07:29;36.30;;;14.10;;
77234;SDS011;66253;50.526;14.974;2023-12-07T04:09:58;39.60;;;13.70;;
77234;SDS011;66253;50.526;14.974;2023-12-07T04:12:26;38.60;;;14.00;;
77234;SDS011;66253;50.526;14.974;2023-12-07T04:14:54;42.00;;;16.30;;
77234;SDS011;66253;50.526;14.974;2023-12-07T04:17:22;38.30;;;13.90;;
77234;SDS011;66253;50.526;14.974;2023-12-07T04:19:51;37.10;;;14.20;;
77234;SDS011;66253;50.526;14.974;2023-12-07T04:22:19;37.90;;;14.00;;
77234;SDS011;66253;50.526;14.974;2023-12-07T04:24:47;35.50;;;13.30;;
77234;SDS011;66253;50.526;14.974;2023-12-07T04:27:15;37.50;;;13.90;;
77234;SDS011;66253;50.526;14.974;2023-12-07T04:29:44;34.00;;;13.60;;
77234;SDS011;66253;50.526;14.974;2023-12-07T04:32:12;36.10;;;13.80;;
77234;SDS011;66253;50.526;14.974;2023-12-07T04:34:40;35.20;;;14.00;;
77234;SDS011;66253;50.526;14.974;2023-12-07T04:37:08;36.30;;;14.10;;
77234;SDS011;66253;50.526;14.974;2023-12-07T04:39:37;38.80;;;14.70;;
77234;SDS011;66253;50.526;14.974;2023-12-07T04:42:05;33.10;;;12.90;;
77234;SDS011;66253;50.526;14.974;2023-12-07T04:44:33;31.70;;;12.00;;
77234;SDS011;66253;50.526;14.974;2023-12-07T04:47:02;34.10;;;12.00;;
77234;SDS011;66253;50.526;14.974;2023-12-07T04:49:30;38.30;;;13.90;;
77234;SDS011;66253;50.526;14.974;2023-12-07T04:51:58;31.70;;;12.80;;
77234;SDS011;66253;50.526;14.974;2023-12-07T04:54:28;33.40;;;13.60;;
77234;SDS011;66253;50.526;14.974;2023-12-07T04:56:56;34.40;;;13.50;;
77234;SDS011;66253;50.526;14.974;2023-12-07T04:59:24;39.30;;;15.50;;
77234;SDS011;66253;50.526;14.974;2023-12-07T05:01:53;39.50;;;16.40;;
77234;SDS011;66253;50.526;14.974;2023-12-07T05:04:21;33.30;;;15.00;;
77234;SDS011;66253;50.526;14.974;2023-12-07T05:06:49;35.10;;;15.00;;
77234;SDS011;66253;50.526;14.974;2023-12-07T05:09:17;39.30;;;14.20;;
77234;SDS011;66253;50.526;14.974;2023-12-07T05:11:46;33.30;;;12.80;;
77234;SDS011;66253;50.526;14.974;2023-12-07T05:14:14;30.40;;;12.50;;
77234;SDS011;66253;50.526;14.974;2023-12-07T05:16:42;33.40;;;12.10;;
77234;SDS011;66253;50.526;14.974;2023-12-07T05:19:11;32.30;;;12.50;;
77234;SDS011;66253;50.526;14.974;2023-12-07T05:21:39;29.30;;;10.50;;
77234;SDS011;66253;50.526;14.974;2023-12-07T05:24:07;29.60;;;11.10;;
77234;SDS011;66253;50.526;14.974;2023-12-07T05:26:35;26.10;;;10.30;;
77234;SDS011;66253;50.526;14.974;2023-12-07T05:29:04;31.80;;;10.60;;
77234;SDS011;66253;50.526;14.974;2023-12-07T05:31:32;32.90;;;12.30;;
77234;SDS011;66253;50.526;14.974;2023-12-07T05:34:00;31.50;;;12.50;;
77234;SDS011;66253;50.526;14.974;2023-12-07T05:36:29;32.10;;;12.50;;
77234;SDS011;66253;50.526;14.974;2023-12-07T05:38:57;31.10;;;12.10;;
77234;SDS011;66253;50.526;14.974;2023-12-07T05:41:26;34.80;;;13.20;;
77234;SDS011;66253;50.526;14.974;2023-12-07T05:43:54;34.30;;;12.30;;
77234;SDS011;66253;50.526;14.974;2023-12-07T05:46:23;35.50;;;12.30;;
77234;SDS011;66253;50.526;14.974;2023-12-07T05:48:51;29.60;;;10.30;;
77234;SDS011;66253;50.526;14.974;2023-12-07T05:51:19;34.20;;;13.00;;
77234;SDS011;66253;50.526;14.974;2023-12-07T05:53:49;33.10;;;11.80;;
77234;SDS011;66253;50.526;14.974;2023-12-07T05:56:19;33.40;;;12.10;;
77234;SDS011;66253;50.526;14.974;2023-12-07T06:01:16;29.60;;;10.60;;
77234;SDS011;66253;50.526;14.974;2023-12-07T06:03:44;27.90;;;10.40;;
77234;SDS011;66253;50.526;14.974;2023-12-07T06:06:13;30.00;;;10.50;;
77234;SDS011;66253;50.526;14.974;2023-12-07T06:08:42;28.80;;;11.00;;
77234;SDS011;66253;50.526;14.974;2023-12-07T06:11:11;28.70;;;11.10;;
77234;SDS011;66253;50.526;14.974;2023-12-07T06:13:39;29.70;;;11.30;;
77234;SDS011;66253;50.526;14.974;2023-12-07T06:16:08;27.80;;;10.80;;
77234;SDS011;66253;50.526;14.974;2023-12-07T06:18:39;29.20;;;12.20;;
77234;SDS011;66253;50.526;14.974;2023-12-07T06:21:07;32.80;;;11.90;;
77234;SDS011;66253;50.526;14.974;2023-12-07T06:23:36;25.00;;;10.30;;
77234;SDS011;66253;50.526;14.974;2023-12-07T06:26:04;26.20;;;9.80;;
77234;SDS011;66253;50.526;14.974;2023-12-07T06:28:32;32.40;;;13.20;;
77234;SDS011;66253;50.526;14.974;2023-12-07T06:31:04;35.90;;;13.10;;
77234;SDS011;66253;50.526;14.974;2023-12-07T06:33:32;36.80;;;14.80;;
77234;SDS011;66253;50.526;14.974;2023-12-07T06:36:00;30.10;;;12.30;;
77234;SDS011;66253;50.526;14.974;2023-12-07T06:38:29;37.70;;;15.10;;
77234;SDS011;66253;50.526;14.974;2023-12-07T06:41:00;36.50;;;14.80;;
77234;SDS011;66253;50.526;14.974;2023-12-07T06:43:28;34.30;;;13.10;;
77234;SDS011;66253;50.526;14.974;2023-12-07T06:45:57;32.20;;;14.00;;
77234;SDS011;66253;50.526;14.974;2023-12-07T06:48:25;31.40;;;12.20;;
77234;SDS011;66253;50.526;14.974;2023-12-07T06:50:53;31.00;;;12.90;;
77234;SDS011;66253;50.526;14.974;2023-12-07T06:53:21;29.30;;;12.50;;
77234;SDS011;66253;50.526;14.974;2023-12-07T06:55:49;29.10;;;12.90;;
77234;SDS011;66253;50.526;14.974;2023-12-07T06:58:18;31.90;;;12.70;;
77234;SDS011;66253;50.526;14.974;2023-12-07T07:00:46;37.70;;;13.60;;
77234;SDS011;66253;50.526;14.974;2023-12-07T07:03:15;39.80;;;15.00;;
77234;SDS011;66253;50.526;14.974;2023-12-07T07:05:43;34.80;;;14.10;;
77234;SDS011;66253;50.526;14.974;2023-12-07T07:08:11;36.20;;;13.40;;
77234;SDS011;66253;50.526;14.974;2023-12-07T07:10:40;36.60;;;13.40;;
77234;SDS011;66253;50.526;14.974;2023-12-07T07:13:08;34.30;;;14.30;;
77234;SDS011;66253;50.526;14.974;2023-12-07T07:15:36;34.80;;;14.10;;
77234;SDS011;66253;50.526;14.974;2023-12-07T07:18:04;36.80;;;13.10;;
77234;SDS011;66253;50.526;14.974;2023-12-07T07:20:33;29.80;;;12.20;;
77234;SDS011;66253;50.526;14.974;2023-12-07T07:23:01;28.70;;;12.80;;
77234;SDS011;66253;50.526;14.974;2023-12-07T07:25:30;33.10;;;14.90;;
77234;SDS011;66253;50.526;14.974;2023-12-07T07:27:58;35.40;;;13.30;;
77234;SDS011;66253;50.526;14.974;2023-12-07T07:30:26;33.80;;;13.70;;
77234;SDS011;66253;50.526;14.974;2023-12-07T07:32:54;37.80;;;14.10;;
77234;SDS011;66253;50.526;14.974;2023-12-07T07:35:22;31.60;;;13.20;;
77234;SDS011;66253;50.526;14.974;2023-12-07T07:37:51;36.00;;;13.60;;
77234;SDS011;66253;50.526;14.974;2023-12-07T07:40:19;35.00;;;13.60;;
77234;SDS011;66253;50.526;14.974;2023-12-07T07:42:47;34.60;;;13.60;;
77234;SDS011;66253;50.526;14.974;2023-12-07T07:45:15;37.30;;;14.10;;
77234;SDS011;66253;50.526;14.974;2023-12-07T07:47:44;33.00;;;14.20;;
77234;SDS011;66253;50.526;14.974;2023-12-07T07:50:15;33.40;;;13.70;;
77234;SDS011;66253;50.526;14.974;2023-12-07T07:52:43;36.20;;;15.10;;
77234;SDS011;66253;50.526;14.974;2023-12-07T07:55:11;32.20;;;15.00;;
77234;SDS011;66253;50.526;14.974;2023-12-07T07:57:39;34.60;;;13.60;;
77234;SDS011;66253;50.526;14.974;2023-12-07T08:00:09;30.80;;;13.30;;
77234;SDS011;66253;50.526;14.974;2023-12-07T08:02:38;35.90;;;13.50;;
77234;SDS011;66253;50.526;14.974;2023-12-07T08:05:07;33.40;;;13.60;;
77234;SDS011;66253;50.526;14.974;2023-12-07T08:07:35;34.50;;;13.00;;
77234;SDS011;66253;50.526;14.974;2023-12-07T08:10:07;30.50;;;12.40;;
77234;SDS011;66253;50.526;14.974;2023-12-07T08:12:36;34.70;;;13.80;;
77234;SDS011;66253;50.526;14.974;2023-12-07T08:15:06;31.50;;;12.90;;
77234;SDS011;66253;50.526;14.974;2023-12-07T08:17:36;31.50;;;13.30;;
77234;SDS011;66253;50.526;14.974;2023-12-07T08:20:07;25.80;;;11.80;;
77234;SDS011;66253;50.526;14.974;2023-12-07T08:22:36;26.30;;;12.40;;
77234;SDS011;66253;50.526;14.974;2023-12-07T08:25:05;27.50;;;11.90;;
77234;SDS011;66253;50.526;14.974;2023-12-07T08:27:34;29.00;;;12.10;;
77234;SDS011;66253;50.526;14.974;2023-12-07T08:30:03;29.10;;;12.60;;
77234;SDS011;66253;50.526;14.974;2023-12-07T08:32:33;31.80;;;12.80;;
77234;SDS011;66253;50.526;14.974;2023-12-07T08:35:01;32.00;;;14.30;;
77234;SDS011;66253;50.526;14.974;2023-12-07T09:51:16;45.10;;;20.70;;
77234;SDS011;66253;50.526;14.974;2023-12-07T09:53:46;42.40;;;21.20;;
77234;SDS011;66253;50.526;14.974;2023-12-07T09:56:19;39.90;;;17.60;;
77234;SDS011;66253;50.526;14.974;2023-12-07T09:58:47;36.00;;;15.80;;
77234;SDS011;66253;50.526;14.974;2023-12-07T10:01:16;37.80;;;16.10;;
77234;SDS011;66253;50.526;14.974;2023-12-07T10:03:44;35.90;;;15.80;;
77234;SDS011;66253;50.526;14.974;2023-12-07T10:06:12;36.50;;;17.10;;
77234;SDS011;66253;50.526;14.974;2023-12-07T10:08:41;42.30;;;19.30;;
77234;SDS011;66253;50.526;14.974;2023-12-07T10:11:10;40.70;;;17.70;;
77234;SDS011;66253;50.526;14.974;2023-12-07T10:13:39;40.90;;;18.20;;
77234;SDS011;66253;50.526;14.974;2023-12-07T10:16:08;39.40;;;17.20;;
77234;SDS011;66253;50.526;14.974;2023-12-07T10:18:38;39.70;;;17.80;;
77234;SDS011;66253;50.526;14.974;2023-12-07T10:21:07;37.20;;;17.50;;
77234;SDS011;66253;50.526;14.974;2023-12-07T10:23:36;38.40;;;16.10;;
77234;SDS011;66253;50.526;14.974;2023-12-07T10:26:06;36.10;;;18.00;;
77234;SDS011;66253;50.526;14.974;2023-12-07T10:28:35;38.20;;;16.00;;
77234;SDS011;66253;50.526;14.974;2023-12-07T10:31:03;38.40;;;15.80;;
77234;SDS011;66253;50.526;14.974;2023-12-07T10:33:36;37.20;;;16.10;;
77234;SDS011;66253;50.526;14.974;2023-12-07T10:36:05;33.80;;;14.30;;
77234;SDS011;66253;50.526;14.974;2023-12-07T10:38:34;38.50;;;15.90;;
77234;SDS011;66253;50.526;14.974;2023-12-07T10:41:04;34.90;;;15.20;;
77234;SDS011;66253;50.526;14.974;2023-12-07T10:43:36;33.60;;;14.50;;
77234;SDS011;66253;50.526;14.974;2023-12-07T10:46:08;36.90;;;14.80;;
77234;SDS011;66253;50.526;14.974;2023-12-07T10:48:41;35.00;;;14.30;;
77234;SDS011;66253;50.526;14.974;2023-12-07T10:51:12;32.90;;;13.60;;
77234;SDS011;66253;50.526;14.974;2023-12-07T10:53:44;29.80;;;12.70;;
77234;SDS011;66253;50.526;14.974;2023-12-07T10:56:15;32.50;;;13.90;;
77234;SDS011;66253;50.526;14.974;2023-12-07T10:58:49;32.30;;;13.70;;
77234;SDS011;66253;50.526;14.974;2023-12-07T11:01:19;30.70;;;13.80;;
77234;SDS011;66253;50.526;14.974;2023-12-07T11:03:50;31.50;;;14.00;;
77234;SDS011;66253;50.526;14.974;2023-12-07T11:06:19;32.40;;;13.30;;
77234;SDS011;66253;50.526;14.974;2023-12-07T11:08:49;35.00;;;14.90;;
77234;SDS011;66253;50.526;14.974;2023-12-07T11:11:21;29.10;;;14.10;;
77234;SDS011;66253;50.526;14.974;2023-12-07T11:13:56;32.80;;;13.50;;
77234;SDS011;66253;50.526;14.974;2023-12-07T11:16:31;35.40;;;15.40;;
77234;SDS011;66253;50.526;14.974;2023-12-07T11:19:01;36.10;;;14.30;;
77234;SDS011;66253;50.526;14.974;2023-12-07T11:21:29;36.90;;;15.60;;
77234;SDS011;66253;50.526;14.974;2023-12-07T11:24:00;36.70;;;16.30;;
77234;SDS011;66253;50.526;14.974;2023-12-07T11:26:30;33.80;;;15.10;;
77234;SDS011;66253;50.526;14.974;2023-12-07T11:28:58;34.90;;;15.00;;
77234;SDS011;66253;50.526;14.974;2023-12-07T11:31:27;35.10;;;15.80;;
77234;SDS011;66253;50.526;14.974;2023-12-07T11:33:59;31.60;;;14.70;;
77234;SDS011;66253;50.526;14.974;2023-12-07T11:36:36;34.60;;;14.10;;
77234;SDS011;66253;50.526;14.974;2023-12-07T11:39:16;37.00;;;14.80;;
77234;SDS011;66253;50.526;14.974;2023-12-07T11:41:45;29.80;;;12.90;;
77234;SDS011;66253;50.526;14.974;2023-12-07T11:44:17;31.40;;;14.70;;
77234;SDS011;66253;50.526;14.974;2023-12-07T11:46:45;34.80;;;15.30;;
77234;SDS011;66253;50.526;14.974;2023-12-07T11:49:13;33.20;;;14.30;;
77234;SDS011;66253;50.526;14.974;2023-12-07T11:51:42;35.40;;;15.30;;
77234;SDS011;66253;50.526;14.974;2023-12-07T11:54:10;31.40;;;14.50;;
77234;SDS011;66253;50.526;14.974;2023-12-07T11:56:41;34.60;;;14.70;;
77234;SDS011;66253;50.526;14.974;2023-12-07T11:59:09;33.10;;;16.60;;
77234;SDS011;66253;50.526;14.974;2023-12-07T12:01:37;35.40;;;15.50;;
77234;SDS011;66253;50.526;14.974;2023-12-07T12:04:06;34.20;;;14.00;;
77234;SDS011;66253;50.526;14.974;2023-12-07T12:06:36;37.60;;;14.90;;
77234;SDS011;66253;50.526;14.974;2023-12-07T12:09:05;32.90;;;14.10;;
77234;SDS011;66253;50.526;14.974;2023-12-07T12:11:33;33.70;;;14.60;;
77234;SDS011;66253;50.526;14.974;2023-12-07T12:14:01;36.00;;;15.80;;
77234;SDS011;66253;50.526;14.974;2023-12-07T12:16:30;35.40;;;16.10;;
77234;SDS011;66253;50.526;14.974;2023-12-07T12:18:58;37.60;;;17.10;;
77234;SDS011;66253;50.526;14.974;2023-12-07T12:21:26;58.20;;;25.60;;
77234;SDS011;66253;50.526;14.974;2023-12-07T12:23:55;50.40;;;24.00;;
77234;SDS011;66253;50.526;14.974;2023-12-07T12:26:24;46.60;;;22.20;;
77234;SDS011;66253;50.526;14.974;2023-12-07T12:28:52;48.50;;;22.40;;
77234;SDS011;66253;50.526;14.974;2023-12-07T12:31:20;40.90;;;16.80;;
77234;SDS011;66253;50.526;14.974;2023-12-07T12:33:49;37.80;;;17.50;;
77234;SDS011;66253;50.526;14.974;2023-12-07T12:36:18;32.80;;;15.20;;
77234;SDS011;66253;50.526;14.974;2023-12-07T12:38:47;33.30;;;15.70;;
77234;SDS011;66253;50.526;14.974;2023-12-07T12:41:19;36.30;;;15.10;;
77234;SDS011;66253;50.526;14.974;2023-12-07T12:43:47;36.40;;;16.40;;
77234;SDS011;66253;50.526;14.974;2023-12-07T12:46:19;43.50;;;17.70;;
77234;SDS011;66253;50.526;14.974;2023-12-07T12:48:54;42.10;;;18.60;;
77234;SDS011;66253;50.526;14.974;2023-12-07T12:51:24;33.40;;;15.40;;
77234;SDS011;66253;50.526;14.974;2023-12-07T12:53:54;41.30;;;18.10;;
77234;SDS011;66253;50.526;14.974;2023-12-07T12:56:24;37.70;;;14.60;;
77234;SDS011;66253;50.526;14.974;2023-12-07T12:58:55;31.70;;;16.20;;
77234;SDS011;66253;50.526;14.974;2023-12-07T13:01:24;35.50;;;15.10;;
77234;SDS011;66253;50.526;14.974;2023-12-07T13:03:52;33.00;;;13.30;;
77234;SDS011;66253;50.526;14.974;2023-12-07T13:06:21;36.70;;;15.60;;
77234;SDS011;66253;50.526;14.974;2023-12-07T13:08:49;33.20;;;14.70;;
77234;SDS011;66253;50.526;14.974;2023-12-07T13:11:17;32.40;;;13.80;;
77234;SDS011;66253;50.526;14.974;2023-12-07T13:13:46;29.90;;;14.10;;
77234;SDS011;66253;50.526;14.974;2023-12-07T13:16:15;32.10;;;13.50;;
77234;SDS011;66253;50.526;14.974;2023-12-07T13:18:44;34.30;;;13.50;;
77234;SDS011;66253;50.526;14.974;2023-12-07T13:21:12;31.40;;;12.40;;
77234;SDS011;66253;50.526;14.974;2023-12-07T13:23:40;31.50;;;13.00;;
77234;SDS011;66253;50.526;14.974;2023-12-07T13:26:08;29.60;;;13.40;;
77234;SDS011;66253;50.526;14.974;2023-12-07T13:28:37;29.20;;;12.90;;
77234;SDS011;66253;50.526;14.974;2023-12-07T13:31:05;32.90;;;13.50;;
77234;SDS011;66253;50.526;14.974;2023-12-07T13:33:33;35.30;;;15.00;;
77234;SDS011;66253;50.526;14.974;2023-12-07T13:36:02;40.00;;;18.10;;
77234;SDS011;66253;50.526;14.974;2023-12-07T13:38:31;49.10;;;25.50;;
77234;SDS011;66253;50.526;14.974;2023-12-07T13:40:59;38.70;;;17.00;;
77234;SDS011;66253;50.526;14.974;2023-12-07T13:43:27;35.60;;;16.40;;
77234;SDS011;66253;50.526;14.974;2023-12-07T13:45:55;33.50;;;14.40;;
77234;SDS011;66253;50.526;14.974;2023-12-07T13:48:23;34.80;;;15.40;;
77234;SDS011;66253;50.526;14.974;2023-12-07T13:50:52;34.50;;;15.00;;
77234;SDS011;66253;50.526;14.974;2023-12-07T13:53:20;36.30;;;15.50;;
77234;SDS011;66253;50.526;14.974;2023-12-07T13:55:49;38.00;;;19.00;;
77234;SDS011;66253;50.526;14.974;2023-12-07T13:58:17;33.70;;;15.50;;
77234;SDS011;66253;50.526;14.974;2023-12-07T14:00:45;32.60;;;13.20;;
77234;SDS011;66253;50.526;14.974;2023-12-07T14:03:13;33.40;;;13.80;;
77234;SDS011;66253;50.526;14.974;2023-12-07T14:05:42;32.50;;;14.10;;
77234;SDS011;66253;50.526;14.974;2023-12-07T14:08:10;31.40;;;15.40;;
77234;SDS011;66253;50.526;14.974;2023-12-07T14:10:38;30.10;;;15.50;;
77234;SDS011;66253;50.526;14.974;2023-12-07T14:13:07;36.50;;;17.60;;
77234;SDS011;66253;50.526;14.974;2023-12-07T14:15:35;39.00;;;16.70;;
77234;SDS011;66253;50.526;14.974;2023-12-07T14:18:05;39.90;;;18.50;;
77234;SDS011;66253;50.526;14.974;2023-12-07T14:20:34;39.80;;;17.80;;
77234;SDS011;66253;50.526;14.974;2023-12-07T14:23:02;48.40;;;19.80;;
77234;SDS011;66253;50.526;14.974;2023-12-07T14:25:31;47.90;;;19.00;;
77234;SDS011;66253;50.526;14.974;2023-12-07T14:27:59;40.40;;;19.10;;
77234;SDS011;66253;50.526;14.974;2023-12-07T14:30:27;50.60;;;22.40;;
77234;SDS011;66253;50.526;14.974;2023-12-07T14:32:56;46.00;;;20.50;;
77234;SDS011;66253;50.526;14.974;2023-12-07T14:35:24;43.70;;;19.60;;
77234;SDS011;66253;50.526;14.974;2023-12-07T14:37:52;43.20;;;18.50;;
77234;SDS011;66253;50.526;14.974;2023-12-07T14:40:21;43.60;;;17.80;;
77234;SDS011;66253;50.526;14.974;2023-12-07T14:42:52;33.60;;;15.50;;
77234;SDS011;66253;50.526;14.974;2023-12-07T14:45:21;34.30;;;16.90;;
77234;SDS011;66253;50.526;14.974;2023-12-07T14:47:49;32.60;;;15.40;;
77234;SDS011;66253;50.526;14.974;2023-12-07T14:50:17;36.10;;;16.70;;
77234;SDS011;66253;50.526;14.974;2023-12-07T14:52:47;41.70;;;18.50;;
77234;SDS011;66253;50.526;14.974;2023-12-07T14:55:15;43.10;;;18.70;;
77234;SDS011;66253;50.526;14.974;2023-12-07T14:57:44;43.80;;;18.90;;
77234;SDS011;66253;50.526;14.974;2023-12-07T15:00:12;45.80;;;19.50;;
77234;SDS011;66253;50.526;14.974;2023-12-07T15:02:41;48.00;;;20.00;;
77234;SDS011;66253;50.526;14.974;2023-12-07T15:05:10;43.80;;;17.70;;
77234;SDS011;66253;50.526;14.974;2023-12-07T15:07:38;40.90;;;17.70;;
77234;SDS011;66253;50.526;14.974;2023-12-07T15:10:07;42.30;;;18.60;;
77234;SDS011;66253;50.526;14.974;2023-12-07T15:12:35;42.20;;;19.40;;
77234;SDS011;66253;50.526;14.974;2023-12-07T15:15:04;40.30;;;18.00;;
77234;SDS011;66253;50.526;14.974;2023-12-07T15:17:36;38.50;;;17.30;;
77234;SDS011;66253;50.526;14.974;2023-12-07T15:20:04;40.20;;;17.30;;
77234;SDS011;66253;50.526;14.974;2023-12-07T15:22:33;38.60;;;16.40;;
77234;SDS011;66253;50.526;14.974;2023-12-07T15:25:02;36.30;;;16.20;;
77234;SDS011;66253;50.526;14.974;2023-12-07T15:27:30;39.10;;;16.00;;
77234;SDS011;66253;50.526;14.974;2023-12-07T15:29:59;37.50;;;15.40;;
77234;SDS011;66253;50.526;14.974;2023-12-07T15:32:27;38.20;;;16.60;;
77234;SDS011;66253;50.526;14.974;2023-12-07T15:34:56;39.80;;;16.50;;
77234;SDS011;66253;50.526;14.974;2023-12-07T15:37:24;38.10;;;15.50;;